createdAt,value
2023-03-15T00:00:00.000Z,2.72
2023-03-15T00:15:00.000Z,2.31
2023-03-15T00:30:00.000Z,2.22
2023-03-15T00:45:00.000Z,2.91
2023-03-15T01:00:00.000Z,2.05
2023-03-15T01:15:00.000Z,1.94
2023-03-15T01:30:00.000Z,2.22
2023-03-15T01:45:00.000Z,2.35
2023-03-15T02:00:00.000Z,6.96
2023-03-15T02:15:00.000Z,8.95
2023-03-15T02:30:00.000Z,2.87
2023-03-15T02:45:00.000Z,2.42
2023-03-15T03:00:00.000Z,3.02
2023-03-15T03:15:00.000Z,2.92
2023-03-15T03:30:00.000Z,1.16
2023-03-15T03:45:00.000Z,1.31
2023-03-15T04:00:00.000Z,1.32
2023-03-15T04:15:00.000Z,1.26
2023-03-15T04:30:00.000Z,1.2
2023-03-15T04:45:00.000Z,5.52
2023-03-15T05:00:00.000Z,4.08
2023-03-15T05:15:00.000Z,5.52
2023-03-15T05:30:00.000Z,7.53
2023-03-15T05:45:00.000Z,8.66
2023-03-15T06:00:00.000Z,19.92
2023-03-15T06:15:00.000Z,17.65
2023-03-15T06:30:00.000Z,9.13
2023-03-15T06:45:00.000Z,8.85
2023-03-15T07:00:00.000Z,10.86
2023-03-15T07:15:00.000Z,10.32
2023-03-15T07:30:00.000Z,9.31
2023-03-15T07:45:00.000Z,9.65
2023-03-15T08:00:00.000Z,9.08
2023-03-15T08:15:00.000Z,8.15
2023-03-15T08:30:00.000Z,9.84
2023-03-15T08:45:00.000Z,10.31
2023-03-15T09:00:00.000Z,11.65
2023-03-15T09:15:00.000Z,11.14
2023-03-15T09:30:00.000Z,10.6
2023-03-15T09:45:00.000Z,9.19
2023-03-15T10:00:00.000Z,8.89
2023-03-15T10:15:00.000Z,8.27
2023-03-15T10:30:00.000Z,8.12
2023-03-15T10:45:00.000Z,8.49
2023-03-15T11:00:00.000Z,7.71
2023-03-15T11:15:00.000Z,7.07
2023-03-15T11:30:00.000Z,6.16
2023-03-15T11:45:00.000Z,5.02
2023-03-15T12:00:00.000Z,5.32
2023-03-15T12:15:00.000Z,4.75
2023-03-15T12:30:00.000Z,5.11
2023-03-15T12:45:00.000Z,5.76
2023-03-15T13:00:00.000Z,4.75
2023-03-15T13:15:00.000Z,4.94
2023-03-15T13:30:00.000Z,6.52
2023-03-15T13:45:00.000Z,4.87
2023-03-15T14:00:00.000Z,4.33
2023-03-15T14:15:00.000Z,5.33
2023-03-15T14:30:00.000Z,8.35
2023-03-15T14:45:00.000Z,15.41
2023-03-15T15:00:00.000Z,14.68
2023-03-15T15:15:00.000Z,13.67
2023-03-15T15:30:00.000Z,9.82
2023-03-15T15:45:00.000Z,14.82
2023-03-15T16:00:00.000Z,7.74
2023-03-15T16:15:00.000Z,5.42
2023-03-15T16:30:00.000Z,5.01
2023-03-15T16:45:00.000Z,4.16
2023-03-15T17:00:00.000Z,4.96
2023-03-15T17:15:00.000Z,4.55
2023-03-15T17:30:00.000Z,5.29
2023-03-15T17:45:00.000Z,5.31
2023-03-15T18:00:00.000Z,6.13
2023-03-15T18:15:00.000Z,6.34
2023-03-15T18:30:00.000Z,7.22
2023-03-15T18:45:00.000Z,7.35
2023-03-15T19:00:00.000Z,7.07
2023-03-15T19:15:00.000Z,11.21
2023-03-15T19:30:00.000Z,9.56
2023-03-15T19:45:00.000Z,11.61
2023-03-15T20:00:00.000Z,8.08
2023-03-15T20:15:00.000Z,10.76
2023-03-15T20:30:00.000Z,9.64
2023-03-15T20:45:00.000Z,10.22
2023-03-15T21:00:00.000Z,9.94
2023-03-15T21:15:00.000Z,9.77
2023-03-15T21:30:00.000Z,10.94
2023-03-15T21:45:00.000Z,10.84
2023-03-15T22:00:00.000Z,12.35
2023-03-15T22:15:00.000Z,12
2023-03-15T22:30:00.000Z,10.59
2023-03-15T22:45:00.000Z,10.71
2023-03-15T23:00:00.000Z,11.82
2023-03-15T23:15:00.000Z,12
2023-03-15T23:30:00.000Z,13
2023-03-15T23:45:00.000Z,12.99
